createdAt,value
2022-08-02T00:00:08.803Z,42.14
2022-08-02T00:02:35.431Z,41.97
2022-08-02T00:05:02.003Z,42.10
2022-08-02T00:07:28.676Z,42.47
2022-08-02T00:09:55.234Z,42.03
2022-08-02T00:12:22.051Z,42.00
2022-08-02T00:14:48.649Z,42.21
2022-08-02T00:17:15.243Z,42.24
2022-08-02T00:19:41.820Z,42.33
2022-08-02T00:22:08.801Z,42.52
2022-08-02T00:24:35.713Z,42.18
2022-08-02T00:27:03.906Z,41.80
2022-08-02T00:29:42.628Z,41.77
2022-08-02T00:32:19.457Z,42.06
2022-08-02T00:34:46.106Z,42.03
2022-08-02T00:37:12.677Z,42.21
2022-08-02T00:39:39.253Z,42.15
2022-08-02T00:42:05.944Z,42.17
2022-08-02T00:44:32.517Z,42.00
2022-08-02T00:46:59.113Z,42.17
2022-08-02T00:49:25.886Z,42.40
2022-08-02T00:51:52.530Z,41.62
2022-08-02T00:54:19.665Z,41.75
2022-08-02T00:56:50.056Z,42.00
2022-08-02T00:59:18.406Z,42.20
2022-08-02T01:01:56.740Z,42.23
2022-08-02T01:04:30.077Z,42.24
2022-08-02T01:06:58.637Z,42.09
2022-08-02T01:09:25.488Z,41.83
2022-08-02T01:11:52.039Z,41.72
2022-08-02T01:14:19.248Z,41.83
2022-08-02T01:16:54.343Z,41.91
2022-08-02T01:19:23.811Z,41.79
2022-08-02T01:22:13.477Z,42.25
2022-08-02T01:24:54.316Z,42.16
2022-08-02T01:27:40.534Z,41.77
2022-08-02T01:30:07.656Z,41.94
2022-08-02T01:32:37.924Z,41.84
2022-08-02T01:35:11.987Z,42.25
2022-08-02T01:37:45.287Z,41.82
2022-08-02T01:40:12.655Z,41.98
2022-08-02T01:42:45.079Z,42.07
2022-08-02T01:45:12.754Z,41.92
2022-08-02T01:47:40.629Z,42.02
2022-08-02T01:50:08.862Z,42.14
2022-08-02T01:52:37.978Z,42.05
2022-08-02T01:55:18.762Z,41.85
2022-08-02T01:57:48.360Z,41.76
2022-08-02T02:00:15.928Z,42.15
2022-08-02T02:02:44.292Z,42.08
2022-08-02T02:05:14.746Z,42.10
2022-08-02T02:07:42.745Z,41.79
2022-08-02T02:10:12.230Z,42.10
2022-08-02T02:12:39.706Z,41.59
2022-08-02T02:15:09.381Z,41.72
2022-08-02T02:17:52.752Z,41.75
2022-08-02T02:20:23.300Z,41.56
2022-08-02T02:22:50.271Z,41.65
2022-08-02T02:25:24.334Z,41.89
2022-08-02T02:28:04.712Z,42.09
2022-08-02T02:30:33.097Z,41.73
2022-08-02T02:33:01.487Z,41.91
2022-08-02T02:35:30.615Z,41.69
2022-08-02T02:37:59.638Z,41.78
2022-08-02T02:40:27.834Z,41.75
2022-08-02T02:42:55.244Z,41.52
2022-08-02T02:45:22.251Z,41.58
2022-08-02T02:47:49.965Z,41.68
2022-08-02T02:50:17.669Z,41.60
2022-08-02T02:52:44.466Z,41.47
2022-08-02T02:55:11.299Z,41.46
2022-08-02T02:57:38.730Z,41.77
2022-08-02T03:00:08.826Z,41.65
2022-08-02T03:02:38.208Z,41.68
2022-08-02T03:05:06.659Z,41.54
2022-08-02T03:07:34.505Z,41.97
2022-08-02T03:10:01.729Z,41.68
2022-08-02T03:12:31.878Z,41.71
2022-08-02T03:15:05.202Z,41.50
2022-08-02T03:17:45.515Z,41.76
2022-08-02T03:20:16.982Z,41.42
2022-08-02T03:22:44.768Z,41.83
2022-08-02T03:25:12.277Z,41.93
2022-08-02T03:27:39.145Z,41.80
2022-08-02T03:30:07.576Z,41.59
2022-08-02T03:32:35.619Z,41.51
2022-08-02T03:35:03.261Z,41.87
2022-08-02T03:37:30.672Z,41.82
2022-08-02T03:39:57.873Z,41.65
2022-08-02T03:42:25.873Z,41.55
2022-08-02T03:44:53.655Z,41.68
2022-08-02T03:47:20.243Z,41.73
2022-08-02T03:49:47.533Z,41.84
2022-08-02T03:52:14.715Z,41.79
2022-08-02T03:54:45.713Z,41.86
2022-08-02T03:57:13.265Z,41.79
2022-08-02T03:59:41.977Z,41.79
2022-08-02T04:02:08.940Z,41.69
2022-08-02T04:04:35.784Z,41.35
2022-08-02T04:07:02.343Z,41.87
2022-08-02T04:09:34.312Z,41.87
2022-08-02T04:12:00.875Z,41.47
2022-08-02T04:14:27.558Z,41.83
2022-08-02T04:16:57.821Z,41.43
2022-08-02T04:19:43.956Z,41.64
2022-08-02T04:22:14.827Z,41.90
2022-08-02T04:24:46.146Z,41.77
2022-08-02T04:27:49.015Z,41.35
2022-08-02T04:30:05.841Z,41.87
2022-08-02T04:32:32.522Z,41.76
2022-08-02T04:35:18.821Z,41.67
2022-08-02T04:38:09.469Z,41.52
2022-08-02T04:40:33.358Z,41.63
2022-08-02T04:42:59.975Z,41.45
2022-08-02T04:45:27.050Z,41.49
2022-08-02T04:48:02.588Z,41.52
2022-08-02T04:50:30.724Z,41.65
2022-08-02T04:52:57.291Z,41.38
2022-08-02T04:55:28.345Z,41.37
2022-08-02T04:57:55.507Z,41.56
2022-08-02T05:00:22.576Z,41.69
2022-08-02T05:02:49.747Z,41.45
2022-08-02T05:05:16.526Z,41.71
2022-08-02T05:07:43.115Z,41.90
2022-08-02T05:10:09.952Z,41.53
2022-08-02T05:12:38.355Z,41.59
2022-08-02T05:15:05.816Z,41.54
2022-08-02T05:17:32.404Z,41.78
2022-08-02T05:19:58.972Z,41.91
2022-08-02T05:22:25.541Z,41.54
2022-08-02T05:24:52.167Z,41.72
2022-08-02T05:27:21.854Z,41.83
2022-08-02T05:29:53.081Z,41.96
2022-08-02T05:32:23.795Z,41.73
2022-08-02T05:34:51.907Z,41.91
2022-08-02T05:37:18.701Z,42.01
2022-08-02T05:39:55.602Z,41.67
2022-08-02T05:42:23.200Z,41.72
2022-08-02T05:44:49.810Z,42.25
2022-08-02T05:47:16.392Z,41.72
2022-08-02T05:49:43.069Z,41.86
2022-08-02T05:52:16.272Z,42.02
2022-08-02T05:54:47.437Z,42.16
2022-08-02T05:57:43.887Z,41.77
2022-08-02T06:00:15.034Z,42.03
2022-08-02T06:02:54.983Z,41.73
2022-08-02T06:05:22.676Z,41.95
2022-08-02T06:07:50.088Z,42.31
2022-08-02T06:10:21.116Z,41.92
2022-08-02T06:13:01.497Z,42.06
2022-08-02T06:15:28.184Z,42.28
2022-08-02T06:17:54.997Z,42.51
2022-08-02T06:20:21.652Z,42.49
2022-08-02T06:22:49.103Z,42.51
2022-08-02T06:25:50.501Z,42.34
2022-08-02T06:28:10.118Z,42.45
2022-08-02T06:30:38.308Z,42.52
2022-08-02T06:33:04.896Z,42.22
2022-08-02T06:35:59.682Z,42.02
2022-08-02T06:38:30.673Z,42.17
2022-08-02T06:41:06.491Z,42.54
2022-08-02T06:43:40.613Z,42.56
2022-08-02T06:47:02.023Z,44.48
2022-08-02T06:48:54.821Z,46.42
2022-08-02T06:51:21.446Z,46.50
2022-08-02T06:53:48.382Z,46.18
2022-08-02T06:56:15.460Z,46.03
2022-08-02T06:58:42.064Z,46.15
2022-08-02T07:01:09.759Z,46.20
2022-08-02T07:03:37.657Z,45.90
2022-08-02T07:06:04.688Z,45.61
2022-08-02T07:08:36.150Z,46.03
2022-08-02T07:11:04.005Z,45.81
2022-08-02T07:13:33.178Z,45.70
2022-08-02T07:16:02.417Z,45.01
2022-08-02T07:18:29.004Z,44.94
2022-08-02T07:20:55.596Z,44.83
2022-08-02T07:23:22.152Z,45.08
2022-08-02T07:26:03.510Z,44.79
2022-08-02T07:28:30.910Z,44.51
2022-08-02T07:30:57.507Z,44.50
2022-08-02T07:33:38.446Z,44.39
2022-08-02T07:36:08.879Z,44.09
2022-08-02T07:38:36.793Z,44.38
2022-08-02T07:41:04.601Z,44.14
2022-08-02T07:43:31.444Z,44.26
2022-08-02T07:46:00.682Z,44.30
2022-08-02T07:48:27.870Z,43.61
2022-08-02T07:50:54.459Z,43.47
2022-08-02T07:53:21.019Z,44.15
2022-08-02T07:56:07.627Z,43.63
2022-08-02T07:58:34.204Z,43.41
2022-08-02T08:01:00.907Z,42.92
2022-08-02T08:03:27.605Z,43.46
2022-08-02T08:05:54.550Z,43.16
2022-08-02T08:08:21.213Z,42.49
2022-08-02T08:10:47.854Z,42.43
2022-08-02T08:13:15.231Z,42.45
2022-08-02T08:15:41.977Z,41.56
2022-08-02T08:18:18.680Z,42.18
2022-08-02T08:20:45.263Z,42.14
2022-08-02T08:23:11.830Z,41.43
2022-08-02T08:25:40.003Z,41.63
2022-08-02T08:28:08.048Z,40.59
2022-08-02T08:30:34.625Z,41.27
2022-08-02T08:33:01.285Z,40.59
2022-08-02T08:35:28.283Z,40.88
2022-08-02T08:37:55.220Z,40.18
2022-08-02T08:40:21.908Z,39.82
2022-08-02T08:42:48.538Z,39.25
2022-08-02T08:45:15.189Z,40.12
2022-08-02T08:47:42.703Z,39.89
2022-08-02T08:50:24.922Z,39.21
2022-08-02T08:53:02.684Z,39.26
2022-08-02T08:55:29.821Z,39.35
2022-08-02T08:57:58.719Z,38.77
2022-08-02T09:00:25.351Z,39.11
2022-08-02T09:02:51.919Z,39.45
2022-08-02T09:05:18.676Z,39.03
2022-08-02T09:07:52.848Z,38.92
2022-08-02T09:10:44.981Z,38.97
2022-08-02T09:13:38.019Z,38.70
2022-08-02T09:16:11.258Z,38.84
2022-08-02T09:18:44.651Z,38.98
2022-08-02T09:21:11.980Z,39.64
2022-08-02T09:23:43.939Z,38.77
2022-08-02T09:26:12.628Z,39.01
2022-08-02T09:28:41.927Z,39.62
2022-08-02T09:31:13.546Z,39.52
2022-08-02T09:33:41.989Z,39.45
2022-08-02T09:36:12.167Z,39.23
2022-08-02T09:38:39.704Z,39.30
2022-08-02T09:41:07.739Z,39.65
2022-08-02T09:44:03.404Z,39.69
2022-08-02T09:46:32.288Z,39.71
2022-08-02T09:49:04.285Z,39.58
2022-08-02T09:51:47.707Z,40.02
2022-08-02T09:54:20.010Z,40.25
2022-08-02T09:56:55.110Z,40.55
2022-08-02T09:59:24.774Z,40.13
2022-08-02T10:02:01.484Z,40.19
2022-08-02T10:04:33.795Z,40.55
2022-08-02T10:07:04.084Z,40.55
2022-08-02T10:09:31.412Z,40.70
2022-08-02T10:11:58.413Z,40.67
2022-08-02T10:14:25.932Z,41.04
2022-08-02T10:16:53.968Z,41.11
2022-08-02T10:20:00.417Z,41.16
2022-08-02T10:22:11.923Z,41.29
2022-08-02T10:24:45.937Z,41.24
2022-08-02T10:27:20.185Z,41.52
2022-08-02T10:29:54.039Z,41.69
2022-08-02T10:32:27.832Z,41.48
2022-08-02T10:35:18.876Z,41.80
2022-08-02T10:37:47.083Z,41.96
2022-08-02T10:40:28.726Z,41.59
2022-08-02T10:43:01.588Z,42.18
2022-08-02T10:45:28.644Z,41.97
2022-08-02T10:48:03.907Z,42.05
2022-08-02T10:50:45.368Z,41.99
2022-08-02T10:53:24.936Z,42.43
2022-08-02T10:55:52.692Z,42.49
2022-08-02T10:58:21.645Z,42.59
2022-08-02T11:00:53.105Z,42.42
2022-08-02T11:03:28.553Z,43.09
2022-08-02T11:06:25.620Z,42.78
2022-08-02T11:09:32.766Z,42.38
2022-08-02T11:12:09.202Z,42.29
2022-08-02T11:14:38.245Z,42.35
2022-08-02T11:17:05.913Z,42.65
2022-08-02T11:19:34.054Z,42.53
2022-08-02T11:22:05.645Z,42.37
2022-08-02T11:24:36.842Z,42.28
2022-08-02T11:27:08.189Z,42.54
2022-08-02T11:29:46.081Z,42.62
2022-08-02T11:32:22.302Z,42.63
2022-08-02T11:34:57.583Z,43.10
2022-08-02T11:37:31.639Z,42.89
2022-08-02T11:39:58.285Z,42.96
2022-08-02T11:42:35.315Z,42.80
2022-08-02T11:45:02.484Z,43.07
2022-08-02T11:47:29.120Z,43.39
2022-08-02T11:50:09.132Z,43.15
2022-08-02T11:52:36.664Z,43.55
2022-08-02T11:55:04.303Z,43.30
2022-08-02T11:58:02.863Z,43.41
2022-08-02T12:00:18.860Z,43.70
2022-08-02T12:02:49.784Z,43.82
2022-08-02T12:05:20.109Z,43.87
2022-08-02T12:07:47.196Z,43.50
2022-08-02T12:10:18.666Z,43.62
2022-08-02T12:13:00.239Z,43.68
2022-08-02T12:15:37.730Z,43.67
2022-08-02T12:18:27.725Z,43.61
2022-08-02T12:20:54.325Z,43.64
2022-08-02T12:23:20.933Z,43.87
2022-08-02T12:26:05.129Z,43.87
2022-08-02T12:28:34.833Z,43.80
2022-08-02T12:31:01.947Z,44.50
2022-08-02T12:33:45.784Z,44.28
2022-08-02T12:36:20.845Z,44.40
2022-08-02T12:38:55.502Z,44.26
2022-08-02T12:41:30.508Z,44.56
2022-08-02T12:43:59.658Z,44.53
2022-08-02T12:46:26.292Z,45.10
2022-08-02T12:49:16.855Z,44.85
2022-08-02T12:51:55.914Z,44.50
2022-08-02T12:54:31.782Z,44.60
2022-08-02T12:57:11.549Z,44.54
2022-08-02T12:59:40.225Z,44.65
2022-08-02T13:02:09.269Z,44.44
2022-08-02T13:04:36.072Z,44.77
2022-08-02T13:07:03.073Z,44.27
2022-08-02T13:09:36.248Z,44.44
2022-08-02T13:12:03.504Z,44.59
2022-08-02T13:14:30.087Z,44.67
2022-08-02T13:16:56.776Z,44.68
2022-08-02T13:19:23.361Z,44.80
2022-08-02T13:22:02.008Z,45.09
2022-08-02T13:24:41.349Z,45.30
2022-08-02T13:27:17.833Z,45.28
2022-08-02T13:29:44.657Z,45.24
2022-08-02T13:32:11.674Z,45.02
2022-08-02T13:34:40.130Z,44.87
2022-08-02T13:37:06.745Z,44.94
2022-08-02T13:39:33.308Z,45.47
2022-08-02T13:41:59.922Z,45.56
2022-08-02T13:44:26.652Z,45.12
2022-08-02T13:46:53.272Z,45.11
2022-08-02T13:49:21.695Z,45.24
2022-08-02T13:52:05.689Z,45.84
2022-08-02T13:54:32.520Z,45.51
2022-08-02T13:56:59.681Z,45.95
2022-08-02T13:59:56.190Z,45.69
2022-08-02T14:02:14.344Z,46.42
2022-08-02T14:04:45.209Z,46.52
2022-08-02T14:07:11.873Z,46.35
2022-08-02T14:09:38.554Z,47.20
2022-08-02T14:12:07.460Z,46.87
2022-08-02T14:14:34.036Z,46.99
2022-08-02T14:17:01.791Z,47.35
2022-08-02T14:19:28.707Z,47.38
2022-08-02T14:21:55.855Z,47.33
2022-08-02T14:24:39.392Z,47.35
2022-08-02T14:27:06.011Z,47.48
2022-08-02T14:29:32.573Z,47.23
2022-08-02T14:31:59.166Z,46.89
2022-08-02T14:34:25.757Z,46.95
2022-08-02T14:36:54.060Z,46.52
2022-08-02T14:39:20.918Z,46.90
2022-08-02T14:41:58.284Z,46.47
2022-08-02T14:44:26.954Z,46.29
2022-08-02T14:46:53.789Z,46.11
2022-08-02T14:49:24.629Z,45.64
2022-08-02T14:51:56.604Z,45.73
2022-08-02T14:54:30.468Z,45.72
2022-08-02T14:57:02.834Z,45.53
2022-08-02T14:59:29.989Z,45.25
2022-08-02T15:01:57.234Z,45.30
2022-08-02T15:04:23.925Z,45.36
2022-08-02T15:06:50.662Z,45.33
2022-08-02T15:09:17.310Z,45.59
2022-08-02T15:11:48.082Z,45.06
2022-08-02T15:14:16.229Z,45.00
2022-08-02T15:16:56.495Z,45.20
2022-08-02T15:19:25.832Z,45.28
2022-08-02T15:22:03.278Z,45.03
2022-08-02T15:24:29.939Z,44.83
2022-08-02T15:26:57.077Z,44.96
2022-08-02T15:29:23.724Z,45.01
2022-08-02T15:31:50.303Z,44.71
2022-08-02T15:34:18.666Z,44.95
2022-08-02T15:36:45.733Z,44.81
2022-08-02T15:39:12.491Z,44.90
2022-08-02T15:41:39.065Z,44.47
2022-08-02T15:44:08.494Z,44.72
2022-08-02T15:46:36.388Z,44.90
2022-08-02T15:49:02.983Z,44.74
2022-08-02T15:51:29.585Z,44.54
2022-08-02T15:53:56.159Z,44.34
2022-08-02T15:56:24.283Z,44.56
2022-08-02T15:58:51.834Z,44.42
2022-08-02T16:01:22.797Z,45.03
2022-08-02T16:03:49.471Z,44.79
2022-08-02T16:06:16.641Z,44.88
2022-08-02T16:08:45.256Z,44.83
2022-08-02T16:11:21.992Z,45.16
2022-08-02T16:13:54.219Z,45.04
2022-08-02T16:16:26.893Z,44.63
2022-08-02T16:18:53.619Z,44.95
2022-08-02T16:21:20.616Z,44.66
2022-08-02T16:23:58.684Z,45.02
2022-08-02T16:26:29.513Z,44.50
2022-08-02T16:28:57.313Z,44.93
2022-08-02T16:31:24.115Z,44.69
2022-08-02T16:33:50.837Z,44.66
2022-08-02T16:36:23.636Z,44.56
2022-08-02T16:38:50.304Z,44.84
2022-08-02T16:41:16.923Z,45.05
2022-08-02T16:43:43.498Z,44.90
2022-08-02T16:46:10.283Z,44.85
2022-08-02T16:48:37.004Z,44.91
2022-08-02T16:51:04.574Z,45.06
2022-08-02T16:53:36.998Z,45.17
2022-08-02T16:56:05.090Z,45.13
2022-08-02T16:58:31.647Z,45.15
2022-08-02T17:00:58.262Z,45.26
2022-08-02T17:03:24.887Z,45.15
2022-08-02T17:06:11.432Z,45.21
2022-08-02T17:08:54.607Z,45.46
2022-08-02T17:11:23.929Z,45.32
2022-08-02T17:13:51.434Z,45.23
2022-08-02T17:16:20.532Z,45.35
2022-08-02T17:18:54.029Z,45.58
2022-08-02T17:21:20.907Z,45.79
2022-08-02T17:24:05.426Z,46.21
2022-08-02T17:26:34.358Z,46.51
2022-08-02T17:29:15.888Z,46.31
2022-08-02T17:31:46.489Z,46.29
2022-08-02T17:34:30.864Z,47.13
2022-08-02T17:36:57.752Z,47.22
2022-08-02T17:39:24.352Z,47.18
2022-08-02T17:42:00.303Z,46.66
2022-08-02T17:44:36.964Z,47.11
2022-08-02T17:47:07.246Z,47.48
2022-08-02T17:49:42.692Z,47.49
2022-08-02T17:52:48.320Z,46.39
2022-08-02T17:54:57.674Z,46.15
2022-08-02T17:57:24.263Z,46.66
2022-08-02T18:00:11.519Z,46.64
2022-08-02T18:02:39.059Z,46.50
2022-08-02T18:05:05.985Z,46.85
2022-08-02T18:07:49.594Z,46.59
2022-08-02T18:10:19.870Z,46.25
2022-08-02T18:12:47.136Z,46.48
2022-08-02T18:15:17.729Z,46.74
2022-08-02T18:17:46.895Z,47.08
2022-08-02T18:20:13.617Z,47.36
2022-08-02T18:22:43.117Z,47.80
2022-08-02T18:25:18.451Z,47.63
2022-08-02T18:27:58.465Z,47.25
2022-08-02T18:30:28.198Z,47.96
2022-08-02T18:33:57.244Z,47.73
2022-08-02T18:35:42.826Z,48.13
2022-08-02T18:38:11.774Z,47.70
2022-08-02T18:40:39.071Z,47.76
2022-08-02T18:43:07.198Z,48.37
2022-08-02T18:46:04.760Z,47.55
2022-08-02T18:48:21.975Z,47.64
2022-08-02T18:50:48.848Z,47.48
2022-08-02T18:53:39.034Z,47.80
2022-08-02T18:56:04.542Z,47.19
2022-08-02T18:58:31.589Z,47.43
2022-08-02T19:00:59.736Z,47.49
2022-08-02T19:03:37.095Z,47.92
2022-08-02T19:06:04.097Z,47.80
2022-08-02T19:08:34.876Z,47.63
2022-08-02T19:11:02.719Z,47.17
2022-08-02T19:13:29.667Z,47.29
2022-08-02T19:15:56.349Z,47.34
2022-08-02T19:18:26.703Z,47.20
2022-08-02T19:21:01.253Z,47.52
2022-08-02T19:23:54.236Z,47.22
2022-08-02T19:26:21.986Z,47.43
2022-08-02T19:28:48.714Z,47.17
2022-08-02T19:31:15.271Z,47.94
2022-08-02T19:34:04.369Z,46.97
2022-08-02T19:36:28.801Z,47.33
2022-08-02T19:38:55.549Z,47.71
2022-08-02T19:41:23.525Z,47.35
2022-08-02T19:44:25.924Z,47.03
2022-08-02T19:46:36.764Z,46.96
2022-08-02T19:49:19.859Z,47.25
2022-08-02T19:51:50.054Z,47.39
2022-08-02T19:54:24.216Z,47.55
2022-08-02T19:57:10.757Z,47.48
2022-08-02T19:59:40.940Z,47.18
2022-08-02T20:02:07.508Z,47.18
2022-08-02T20:04:34.147Z,46.78
2022-08-02T20:07:02.366Z,46.79
2022-08-02T20:09:33.143Z,46.62
2022-08-02T20:12:00.224Z,46.35
2022-08-02T20:14:28.026Z,46.79
2022-08-02T20:16:57.530Z,46.45
2022-08-02T20:19:24.642Z,46.41
2022-08-02T20:21:56.846Z,46.61
2022-08-02T20:24:26.669Z,46.46
2022-08-02T20:26:53.458Z,46.39
2022-08-02T20:29:42.781Z,46.53
2022-08-02T20:32:07.896Z,46.42
2022-08-02T20:34:36.212Z,46.31
2022-08-02T20:37:56.316Z,46.58
2022-08-02T20:39:51.234Z,46.20
2022-08-02T20:42:23.201Z,46.13
2022-08-02T20:44:56.619Z,45.99
2022-08-02T20:47:27.822Z,45.59
2022-08-02T20:50:24.328Z,46.15
2022-08-02T20:52:58.317Z,45.80
2022-08-02T20:55:25.021Z,46.08
2022-08-02T20:58:01.031Z,46.25
2022-08-02T21:00:28.512Z,45.75
2022-08-02T21:02:55.423Z,46.02
2022-08-02T21:05:26.995Z,45.95
2022-08-02T21:08:13.807Z,45.92
2022-08-02T21:10:43.626Z,45.96
2022-08-02T21:13:18.696Z,45.90
2022-08-02T21:15:45.985Z,46.29
2022-08-02T21:18:14.661Z,45.96
2022-08-02T21:20:52.801Z,46.26
2022-08-02T21:23:19.846Z,46.07
2022-08-02T21:25:56.733Z,45.85
2022-08-02T21:28:24.901Z,46.20
2022-08-02T21:31:09.927Z,46.32
2022-08-02T21:33:56.936Z,46.03
2022-08-02T21:36:23.069Z,46.09
2022-08-02T21:38:58.152Z,45.85
2022-08-02T21:41:24.724Z,46.44
2022-08-02T21:44:07.092Z,45.84
2022-08-02T21:46:33.654Z,45.87
2022-08-02T21:49:01.402Z,46.01
2022-08-02T21:51:28.101Z,46.03
2022-08-02T21:54:17.508Z,45.38
2022-08-02T21:56:42.299Z,45.71
2022-08-02T21:59:16.316Z,45.48
2022-08-02T22:01:52.399Z,45.91
2022-08-02T22:04:19.171Z,45.91
2022-08-02T22:06:47.063Z,45.94
2022-08-02T22:09:17.720Z,46.03
2022-08-02T22:12:03.999Z,45.72
2022-08-02T22:14:30.550Z,45.63
2022-08-02T22:16:57.336Z,45.80
2022-08-02T22:19:23.925Z,45.71
2022-08-02T22:21:55.547Z,46.23
2022-08-02T22:24:29.995Z,45.96
2022-08-02T22:26:57.579Z,45.35
2022-08-02T22:29:24.185Z,45.80
2022-08-02T22:31:52.103Z,45.94
2022-08-02T22:34:38.304Z,45.90
2022-08-02T22:37:05.800Z,45.57
2022-08-02T22:40:08.489Z,45.40
2022-08-02T22:42:40.190Z,45.71
2022-08-02T22:45:07.505Z,46.04
2022-08-02T22:47:38.576Z,45.49
2022-08-02T22:50:05.932Z,45.71
2022-08-02T22:52:38.597Z,46.18
2022-08-02T22:55:05.479Z,45.95
2022-08-02T22:57:33.147Z,45.95
2022-08-02T23:00:19.744Z,46.27
2022-08-02T23:02:46.408Z,46.06
2022-08-02T23:05:13.558Z,45.67
2022-08-02T23:07:40.196Z,45.79
2022-08-02T23:10:07.957Z,45.42
2022-08-02T23:12:34.799Z,45.37
2022-08-02T23:15:01.367Z,45.54
2022-08-02T23:17:46.401Z,45.51
2022-08-02T23:20:13.837Z,45.78
2022-08-02T23:22:40.605Z,45.46
2022-08-02T23:25:07.883Z,45.91
2022-08-02T23:27:34.579Z,46.22
2022-08-02T23:30:01.823Z,45.62
2022-08-02T23:32:28.674Z,45.73
2022-08-02T23:34:55.912Z,46.05
2022-08-02T23:37:23.131Z,46.10
2022-08-02T23:39:49.731Z,46.30
2022-08-02T23:42:16.431Z,45.91
2022-08-02T23:44:43.202Z,45.59
2022-08-02T23:47:11.086Z,45.67
2022-08-02T23:49:38.368Z,46.01
2022-08-02T23:52:04.991Z,45.61
2022-08-02T23:54:31.556Z,45.78
2022-08-02T23:56:59.222Z,45.74
2022-08-02T23:59:25.820Z,45.92
